createdAt,value
2023-02-02T00:01:52.130Z,2.69
2023-02-02T00:04:18.419Z,2.54
2023-02-02T00:06:44.710Z,2.65
2023-02-02T00:09:10.982Z,2.41
2023-02-02T00:11:37.258Z,2.45
2023-02-02T00:14:03.538Z,2.46
2023-02-02T00:16:29.833Z,2.25
2023-02-02T00:18:56.133Z,2.32
2023-02-02T00:21:22.428Z,2.00
2023-02-02T00:23:48.708Z,2.19
2023-02-02T00:26:14.983Z,2.35
2023-02-02T00:28:41.283Z,2.14
2023-02-02T00:31:07.649Z,1.86
2023-02-02T00:33:33.969Z,1.89
2023-02-02T00:36:00.267Z,1.87
2023-02-02T00:38:26.557Z,2.21
2023-02-02T00:40:52.831Z,2.60
2023-02-02T00:43:19.123Z,2.19
2023-02-02T00:45:45.472Z,1.88
2023-02-02T00:48:11.776Z,2.22
2023-02-02T00:50:38.076Z,2.56
2023-02-02T00:53:04.357Z,2.45
2023-02-02T00:55:30.651Z,2.51
2023-02-02T00:57:56.982Z,2.63
2023-02-02T01:00:23.247Z,2.46
2023-02-02T01:02:49.525Z,2.55
2023-02-02T01:05:15.809Z,2.63
2023-02-02T01:07:42.092Z,2.94
2023-02-02T01:10:08.375Z,3.07
2023-02-02T01:12:34.677Z,2.27
2023-02-02T01:15:00.962Z,1.86
2023-02-02T01:17:27.248Z,2.19
2023-02-02T01:19:53.540Z,2.07
2023-02-02T01:22:19.816Z,1.83
2023-02-02T01:24:46.094Z,1.65
2023-02-02T01:27:12.391Z,1.67
2023-02-02T01:29:38.669Z,1.76
2023-02-02T01:32:05.028Z,1.76
2023-02-02T01:34:31.377Z,1.48
2023-02-02T01:36:57.643Z,1.62
2023-02-02T01:39:23.933Z,1.57
2023-02-02T01:41:50.237Z,1.68
2023-02-02T01:44:16.519Z,1.78
2023-02-02T01:46:42.791Z,2.08
2023-02-02T01:49:09.080Z,2.10
2023-02-02T01:51:35.355Z,2.07
2023-02-02T01:54:01.647Z,1.99
2023-02-02T01:56:27.939Z,1.98
2023-02-02T01:58:54.286Z,2.21
2023-02-02T02:01:20.627Z,2.26
2023-02-02T02:03:46.952Z,2.39
2023-02-02T02:06:13.263Z,2.60
2023-02-02T02:08:39.595Z,2.77
2023-02-02T02:11:05.944Z,2.55
2023-02-02T02:13:32.267Z,3.29
2023-02-02T02:15:58.607Z,3.46
2023-02-02T02:18:24.958Z,3.43
2023-02-02T02:20:51.285Z,3.44
2023-02-02T02:23:17.624Z,3.73
2023-02-02T02:25:43.988Z,3.31
2023-02-02T02:28:10.325Z,3.39
2023-02-02T02:30:36.745Z,3.18
2023-02-02T02:33:03.165Z,3.28
2023-02-02T02:35:32.315Z,3.11
2023-02-02T02:37:58.645Z,2.96
2023-02-02T02:40:24.996Z,2.89
2023-02-02T02:42:51.324Z,3.01
2023-02-02T02:45:17.646Z,2.96
2023-02-02T02:47:44.013Z,2.97
2023-02-02T02:50:10.336Z,2.71
2023-02-02T02:52:36.682Z,2.68
2023-02-02T02:55:03.044Z,2.53
2023-02-02T02:57:29.371Z,2.69
2023-02-02T02:59:55.698Z,2.73
2023-02-02T03:02:22.063Z,3.54
2023-02-02T03:04:48.402Z,3.87
2023-02-02T03:07:14.724Z,4.21
2023-02-02T03:09:41.117Z,3.85
2023-02-02T03:12:07.443Z,3.40
2023-02-02T03:14:33.763Z,3.64
2023-02-02T03:17:00.117Z,3.41
2023-02-02T03:19:26.447Z,3.36
2023-02-02T03:21:52.768Z,3.70
2023-02-02T03:24:19.119Z,3.94
2023-02-02T03:26:45.505Z,4.00
2023-02-02T03:29:11.881Z,3.66
2023-02-02T03:31:38.298Z,3.40
2023-02-02T03:34:04.668Z,3.64
2023-02-02T03:36:30.981Z,3.94
2023-02-02T03:38:57.325Z,3.81
2023-02-02T03:41:23.656Z,3.43
2023-02-02T03:43:49.995Z,3.52
2023-02-02T03:46:16.386Z,3.23
2023-02-02T03:48:42.717Z,3.18
2023-02-02T03:51:09.026Z,2.84
2023-02-02T03:53:35.328Z,2.65
2023-02-02T03:56:01.611Z,2.62
2023-02-02T03:58:28.004Z,2.66
2023-02-02T04:00:54.299Z,2.63
2023-02-02T04:03:20.593Z,2.55
2023-02-02T04:05:46.880Z,2.50
2023-02-02T04:08:17.709Z,2.26
2023-02-02T04:10:43.995Z,2.35
2023-02-02T04:13:10.284Z,2.18
2023-02-02T04:15:36.611Z,2.30
2023-02-02T04:18:02.901Z,1.96
2023-02-02T04:20:29.179Z,2.12
2023-02-02T04:22:55.472Z,2.05
2023-02-02T04:25:21.832Z,1.87
2023-02-02T04:27:48.137Z,2.03
2023-02-02T04:30:14.443Z,2.02
2023-02-02T04:32:40.731Z,2.03
2023-02-02T04:35:07.015Z,1.92
2023-02-02T04:37:33.312Z,1.91
2023-02-02T04:39:59.590Z,1.81
2023-02-02T04:42:25.872Z,1.68
2023-02-02T04:44:52.163Z,1.86
2023-02-02T04:47:18.455Z,1.73
2023-02-02T04:49:44.756Z,1.73
2023-02-02T04:52:11.051Z,2.02
2023-02-02T04:54:37.339Z,2.08
2023-02-02T04:57:03.627Z,2.16
2023-02-02T04:59:30.097Z,1.96
2023-02-02T05:01:56.402Z,2.18
2023-02-02T05:04:22.688Z,2.30
2023-02-02T05:06:49.027Z,2.35
2023-02-02T05:09:15.309Z,2.43
2023-02-02T05:11:41.590Z,2.63
2023-02-02T05:14:08.043Z,2.63
2023-02-02T05:16:34.364Z,2.87
2023-02-02T05:19:00.690Z,2.85
2023-02-02T05:21:27.073Z,2.50
2023-02-02T05:23:53.391Z,2.80
2023-02-02T05:26:19.772Z,2.98
2023-02-02T05:28:46.148Z,2.86
2023-02-02T05:31:12.490Z,3.04
2023-02-02T05:33:38.780Z,3.14
2023-02-02T05:36:05.068Z,3.23
2023-02-02T05:38:31.355Z,3.14
2023-02-02T05:40:57.639Z,3.29
2023-02-02T05:43:23.964Z,3.54
2023-02-02T05:45:50.261Z,3.44
2023-02-02T05:48:16.553Z,3.39
2023-02-02T05:50:42.852Z,3.28
2023-02-02T05:53:09.129Z,3.28
2023-02-02T05:55:35.417Z,3.05
2023-02-02T05:58:01.717Z,3.10
2023-02-02T06:00:28.005Z,3.46
2023-02-02T06:02:54.337Z,3.31
2023-02-02T06:05:20.635Z,2.93
2023-02-02T06:07:46.916Z,2.30
2023-02-02T06:10:13.195Z,3.01
2023-02-02T06:12:39.493Z,1.96
2023-02-02T06:15:05.783Z,1.79
2023-02-02T06:17:32.078Z,1.67
2023-02-02T06:19:58.377Z,1.60
2023-02-02T06:22:24.665Z,1.68
2023-02-02T06:24:50.937Z,1.67
2023-02-02T06:27:17.259Z,1.86
2023-02-02T06:29:43.566Z,2.03
2023-02-02T06:32:09.899Z,1.70
2023-02-02T06:34:36.279Z,1.59
2023-02-02T06:37:02.559Z,1.41
2023-02-02T06:39:28.840Z,1.43
2023-02-02T06:41:55.229Z,1.72
2023-02-02T06:44:21.513Z,1.68
2023-02-02T06:46:47.805Z,1.53
2023-02-02T06:49:14.095Z,1.35
2023-02-02T06:51:40.399Z,1.64
2023-02-02T06:54:06.684Z,1.90
2023-02-02T06:56:33.356Z,1.78
2023-02-02T06:58:59.711Z,1.87
2023-02-02T07:01:26.025Z,1.83
2023-02-02T07:03:52.341Z,1.84
2023-02-02T07:06:18.636Z,2.36
2023-02-02T07:08:44.933Z,2.98
2023-02-02T07:11:15.099Z,3.31
2023-02-02T07:13:42.552Z,3.75
2023-02-02T07:16:08.884Z,3.53
2023-02-02T07:18:35.319Z,2.47
2023-02-02T07:21:01.603Z,2.12
2023-02-02T07:23:27.891Z,2.17
2023-02-02T07:25:54.198Z,2.25
2023-02-02T07:28:20.495Z,2.30
2023-02-02T07:30:46.807Z,2.33
2023-02-02T07:33:13.144Z,2.51
2023-02-02T07:35:39.446Z,2.36
2023-02-02T07:38:05.754Z,2.36
2023-02-02T07:40:32.068Z,2.45
2023-02-02T07:42:58.352Z,2.44
2023-02-02T07:45:29.709Z,3.03
2023-02-02T07:47:56.030Z,2.67
2023-02-02T07:50:22.317Z,2.40
2023-02-02T07:52:48.603Z,2.91
2023-02-02T07:55:15.199Z,3.24
2023-02-02T07:57:41.491Z,4.29
2023-02-02T08:00:07.783Z,5.13
2023-02-02T08:02:34.129Z,5.16
2023-02-02T08:05:00.455Z,5.12
2023-02-02T08:07:26.752Z,5.20
2023-02-02T08:09:53.066Z,4.96
2023-02-02T08:12:19.356Z,4.56
2023-02-02T08:14:45.652Z,4.79
2023-02-02T08:17:11.964Z,4.47
2023-02-02T08:19:38.251Z,4.39
2023-02-02T08:22:04.542Z,4.44
2023-02-02T08:24:30.828Z,4.29
2023-02-02T08:26:57.158Z,4.27
2023-02-02T08:29:23.453Z,3.63
2023-02-02T08:31:49.865Z,3.13
2023-02-02T08:34:16.237Z,3.04
2023-02-02T08:36:42.540Z,2.76
2023-02-02T08:39:08.888Z,2.93
2023-02-02T08:41:35.226Z,2.98
2023-02-02T08:44:01.525Z,3.10
2023-02-02T08:46:27.971Z,3.27
2023-02-02T08:48:54.300Z,2.58
2023-02-02T08:51:20.598Z,2.23
2023-02-02T08:53:46.903Z,2.03
2023-02-02T08:56:13.181Z,1.71
2023-02-02T08:58:39.478Z,1.91
2023-02-02T09:01:05.891Z,1.91
2023-02-02T09:03:32.235Z,1.91
2023-02-02T09:05:58.525Z,1.96
2023-02-02T09:08:24.836Z,1.95
2023-02-02T09:10:51.147Z,1.88
2023-02-02T09:13:17.428Z,1.77
2023-02-02T09:15:43.752Z,1.91
2023-02-02T09:18:10.059Z,2.09
2023-02-02T09:20:36.341Z,1.85
2023-02-02T09:23:02.640Z,2.50
2023-02-02T09:25:28.932Z,2.18
2023-02-02T09:27:55.218Z,2.58
2023-02-02T09:30:21.529Z,2.08
2023-02-02T09:32:47.795Z,2.04
2023-02-02T09:35:14.077Z,1.98
2023-02-02T09:37:40.383Z,1.92
2023-02-02T09:40:06.665Z,1.90
2023-02-02T09:42:32.957Z,2.36
2023-02-02T09:44:59.308Z,2.28
2023-02-02T09:47:25.587Z,2.42
2023-02-02T09:49:51.869Z,2.44
2023-02-02T09:52:18.166Z,2.21
2023-02-02T09:54:44.461Z,2.46
2023-02-02T09:57:10.758Z,2.20
2023-02-02T09:59:37.063Z,2.37
2023-02-02T10:02:03.339Z,2.24
2023-02-02T10:04:29.625Z,2.34
2023-02-02T10:06:55.928Z,2.88
2023-02-02T10:09:22.222Z,2.38
2023-02-02T10:11:48.502Z,1.70
2023-02-02T10:14:14.816Z,2.01
2023-02-02T10:16:41.111Z,1.63
2023-02-02T10:19:07.437Z,1.63
2023-02-02T10:21:33.739Z,1.21
2023-02-02T10:24:02.199Z,1.16
2023-02-02T10:26:28.754Z,1.28
2023-02-02T10:28:55.089Z,1.18
2023-02-02T10:31:21.453Z,1.21
2023-02-02T10:33:47.795Z,1.27
2023-02-02T10:36:14.097Z,1.24
2023-02-02T10:38:40.402Z,1.22
2023-02-02T10:41:06.708Z,1.27
2023-02-02T10:43:33.009Z,1.30
2023-02-02T10:46:02.140Z,1.17
2023-02-02T10:48:28.509Z,1.25
2023-02-02T10:50:54.854Z,1.25
2023-02-02T10:53:21.169Z,1.21
2023-02-02T10:55:47.465Z,1.27
2023-02-02T10:58:13.765Z,1.14
2023-02-02T11:00:40.067Z,1.17
2023-02-02T11:03:06.397Z,1.17
2023-02-02T11:05:32.737Z,1.39
2023-02-02T11:07:59.004Z,1.25
2023-02-02T11:10:25.557Z,1.06
2023-02-02T11:12:51.990Z,1.07
2023-02-02T11:15:18.279Z,1.17
2023-02-02T11:17:44.587Z,1.21
2023-02-02T11:20:10.943Z,1.15
2023-02-02T11:22:37.220Z,1.08
2023-02-02T11:25:03.506Z,1.24
2023-02-02T11:27:29.821Z,1.35
2023-02-02T11:29:56.094Z,1.07
2023-02-02T11:32:22.368Z,1.13
2023-02-02T11:34:48.666Z,1.06
2023-02-02T11:37:14.953Z,1.13
2023-02-02T11:39:41.226Z,1.07
2023-02-02T11:42:07.537Z,1.04
2023-02-02T11:44:33.836Z,1.06
2023-02-02T11:47:00.175Z,1.19
2023-02-02T11:49:26.495Z,1.21
2023-02-02T11:51:52.795Z,1.37
2023-02-02T11:54:19.073Z,1.49
2023-02-02T11:56:45.415Z,1.61
2023-02-02T11:59:11.710Z,1.36
2023-02-02T12:01:38.050Z,1.39
2023-02-02T12:04:04.473Z,1.28
2023-02-02T12:06:30.772Z,1.45
2023-02-02T12:08:57.062Z,1.48
2023-02-02T12:11:23.373Z,1.41
2023-02-02T12:13:49.651Z,1.55
2023-02-02T12:16:15.990Z,1.63
2023-02-02T12:18:42.287Z,1.72
2023-02-02T12:21:08.635Z,1.79
2023-02-02T12:23:34.943Z,1.85
2023-02-02T12:26:01.241Z,1.81
2023-02-02T12:28:27.643Z,1.70
2023-02-02T12:30:53.999Z,1.54
2023-02-02T12:33:20.313Z,1.85
2023-02-02T12:35:46.606Z,2.10
2023-02-02T12:38:12.913Z,1.83
2023-02-02T12:40:39.379Z,2.12
2023-02-02T12:43:05.681Z,2.05
2023-02-02T12:45:32.068Z,1.83
2023-02-02T12:47:58.379Z,1.94
2023-02-02T12:50:24.934Z,1.77
2023-02-02T12:52:51.491Z,1.93
2023-02-02T12:55:17.794Z,1.91
2023-02-02T12:57:44.078Z,1.74
2023-02-02T13:00:10.370Z,1.96
2023-02-02T13:02:36.730Z,2.00
2023-02-02T13:05:03.035Z,1.99
2023-02-02T13:07:29.325Z,1.95
2023-02-02T13:09:55.620Z,1.93
2023-02-02T13:12:21.913Z,1.47
2023-02-02T13:14:48.210Z,1.73
2023-02-02T13:17:19.163Z,1.60
2023-02-02T13:19:45.448Z,1.56
2023-02-02T13:22:11.742Z,1.38
2023-02-02T13:24:38.044Z,1.63
2023-02-02T13:27:04.411Z,1.59
2023-02-02T13:29:30.721Z,1.74
2023-02-02T13:31:57.231Z,1.61
2023-02-02T13:34:23.559Z,1.32
2023-02-02T13:36:49.828Z,1.23
2023-02-02T13:39:16.119Z,1.36
2023-02-02T13:41:42.406Z,1.45
2023-02-02T13:44:08.695Z,1.32
2023-02-02T13:46:36.089Z,1.28
2023-02-02T13:49:02.397Z,1.22
2023-02-02T13:51:28.708Z,1.24
2023-02-02T13:53:55.017Z,1.03
2023-02-02T13:56:21.312Z,1.38
2023-02-02T13:58:47.617Z,1.21
2023-02-02T14:01:13.993Z,1.31
2023-02-02T14:03:40.347Z,1.29
2023-02-02T14:06:06.642Z,1.27
2023-02-02T14:08:33.104Z,1.39
2023-02-02T14:10:59.387Z,1.35
2023-02-02T14:13:25.658Z,1.58
2023-02-02T14:15:51.974Z,1.70
2023-02-02T14:18:18.313Z,1.45
2023-02-02T14:20:44.595Z,1.60
2023-02-02T14:23:10.900Z,1.47
2023-02-02T14:25:37.183Z,1.44
2023-02-02T14:28:03.474Z,1.32
2023-02-02T14:30:29.781Z,1.50
2023-02-02T14:32:56.074Z,1.54
2023-02-02T14:35:22.418Z,1.65
2023-02-02T14:37:48.793Z,1.45
2023-02-02T14:40:15.082Z,1.53
2023-02-02T14:42:41.379Z,1.66
2023-02-02T14:45:07.681Z,1.78
2023-02-02T14:47:33.978Z,1.60
2023-02-02T14:50:00.276Z,1.37
2023-02-02T14:52:27.817Z,1.32
2023-02-02T14:54:54.102Z,1.43
2023-02-02T14:57:20.416Z,1.30
2023-02-02T14:59:46.718Z,1.36
2023-02-02T15:02:13.015Z,1.51
2023-02-02T15:04:39.306Z,1.55
2023-02-02T15:07:05.611Z,1.62
2023-02-02T15:09:31.892Z,1.72
2023-02-02T15:12:00.562Z,1.87
2023-02-02T15:14:27.681Z,1.46
2023-02-02T15:16:53.959Z,1.27
2023-02-02T15:19:20.228Z,1.62
2023-02-02T15:21:46.534Z,1.67
2023-02-02T15:24:14.139Z,1.75
2023-02-02T15:26:41.970Z,1.41
2023-02-02T15:29:08.302Z,1.78
2023-02-02T15:31:34.628Z,1.41
2023-02-02T15:34:00.922Z,1.66
2023-02-02T15:36:27.230Z,1.70
2023-02-02T15:38:53.543Z,1.74
2023-02-02T15:41:19.820Z,1.47
2023-02-02T15:43:46.122Z,1.60
2023-02-02T15:46:12.443Z,1.52
2023-02-02T15:48:38.731Z,1.63
2023-02-02T15:51:05.058Z,1.70
2023-02-02T15:53:31.363Z,1.72
2023-02-02T15:55:57.662Z,2.04
2023-02-02T15:58:24.019Z,2.97
2023-02-02T16:00:50.338Z,2.60
2023-02-02T16:03:16.621Z,2.38
2023-02-02T16:05:42.906Z,1.93
2023-02-02T16:08:09.207Z,1.96
2023-02-02T16:10:35.505Z,1.88
2023-02-02T16:13:01.808Z,1.68
2023-02-02T16:15:28.146Z,1.44
2023-02-02T16:17:54.474Z,1.51
2023-02-02T16:20:20.807Z,1.66
2023-02-02T16:22:47.197Z,1.51
2023-02-02T16:25:13.491Z,1.38
2023-02-02T16:27:39.795Z,1.68
2023-02-02T16:30:06.096Z,1.50
2023-02-02T16:32:32.389Z,1.57
2023-02-02T16:34:58.712Z,1.52
2023-02-02T16:37:25.001Z,1.53
2023-02-02T16:39:51.278Z,1.73
2023-02-02T16:42:17.569Z,1.77
2023-02-02T16:44:43.890Z,1.73
2023-02-02T16:47:10.209Z,1.89
2023-02-02T16:49:36.566Z,3.57
2023-02-02T16:52:02.853Z,5.76
2023-02-02T16:54:29.139Z,3.96
2023-02-02T16:56:55.432Z,3.38
2023-02-02T16:59:21.712Z,4.96
2023-02-02T17:01:48.007Z,3.72
2023-02-02T17:04:14.344Z,3.73
2023-02-02T17:06:51.959Z,3.16
2023-02-02T17:09:19.321Z,3.62
2023-02-02T17:11:45.608Z,3.40
2023-02-02T17:14:11.888Z,3.69
2023-02-02T17:16:38.214Z,3.65
2023-02-02T17:19:04.579Z,2.17
2023-02-02T17:21:33.589Z,1.95
2023-02-02T17:24:00.227Z,2.69
2023-02-02T17:26:26.546Z,2.95
2023-02-02T17:28:52.840Z,2.86
2023-02-02T17:31:19.283Z,2.29
2023-02-02T17:33:45.620Z,2.00
2023-02-02T17:36:11.907Z,2.19
2023-02-02T17:38:38.205Z,2.22
2023-02-02T17:41:04.515Z,3.32
2023-02-02T17:43:30.786Z,3.49
2023-02-02T17:45:57.136Z,2.65
2023-02-02T17:48:23.455Z,2.81
2023-02-02T17:50:49.727Z,2.50
2023-02-02T17:53:16.017Z,2.42
2023-02-02T17:55:42.448Z,2.42
2023-02-02T17:58:08.727Z,2.39
2023-02-02T18:00:35.033Z,2.88
2023-02-02T18:03:01.391Z,3.85
2023-02-02T18:05:27.895Z,3.14
2023-02-02T18:07:54.374Z,2.64
2023-02-02T18:10:20.654Z,2.87
2023-02-02T18:12:46.930Z,3.05
2023-02-02T18:15:13.240Z,3.07
2023-02-02T18:17:39.538Z,2.63
2023-02-02T18:20:05.823Z,2.92
2023-02-02T18:22:32.136Z,2.71
2023-02-02T18:24:58.412Z,3.85
2023-02-02T18:27:24.694Z,3.20
2023-02-02T18:29:51.031Z,2.55
2023-02-02T18:32:17.326Z,2.58
2023-02-02T18:34:43.606Z,2.69
2023-02-02T18:37:09.921Z,2.55
2023-02-02T18:39:36.211Z,2.72
2023-02-02T18:42:02.508Z,4.18
2023-02-02T18:44:28.823Z,4.06
2023-02-02T18:46:55.126Z,2.97
2023-02-02T18:49:21.420Z,2.55
2023-02-02T18:51:47.717Z,2.75
2023-02-02T18:54:14.006Z,2.46
2023-02-02T18:56:40.280Z,2.47
2023-02-02T18:59:06.592Z,2.38
2023-02-02T19:01:32.908Z,2.21
2023-02-02T19:03:59.249Z,2.87
2023-02-02T19:06:25.579Z,3.29
2023-02-02T19:08:51.858Z,3.15
2023-02-02T19:11:18.176Z,3.05
2023-02-02T19:13:44.508Z,2.93
2023-02-02T19:16:10.869Z,2.62
2023-02-02T19:18:37.157Z,2.96
2023-02-02T19:21:03.452Z,3.19
2023-02-02T19:23:29.731Z,3.09
2023-02-02T19:25:56.056Z,3.85
2023-02-02T19:28:22.368Z,2.83
2023-02-02T19:30:48.701Z,2.25
2023-02-02T19:33:14.999Z,1.69
2023-02-02T19:35:41.335Z,1.85
2023-02-02T19:38:07.633Z,2.14
2023-02-02T19:40:33.918Z,2.27
2023-02-02T19:43:00.216Z,2.38
2023-02-02T19:45:26.503Z,2.48
2023-02-02T19:47:52.794Z,1.49
2023-02-02T19:50:19.106Z,1.55
2023-02-02T19:52:45.410Z,1.62
2023-02-02T19:55:11.701Z,1.84
2023-02-02T19:57:37.996Z,2.38
2023-02-02T20:00:04.263Z,2.42
2023-02-02T20:02:30.560Z,2.43
2023-02-02T20:04:56.874Z,2.09
2023-02-02T20:07:23.156Z,2.15
2023-02-02T20:09:49.439Z,1.87
2023-02-02T20:12:15.763Z,2.16
2023-02-02T20:14:42.047Z,2.41
2023-02-02T20:17:08.331Z,2.16
2023-02-02T20:19:34.645Z,2.26
2023-02-02T20:22:00.935Z,2.05
2023-02-02T20:24:27.242Z,1.88
2023-02-02T20:26:53.591Z,2.16
2023-02-02T20:29:19.885Z,3.59
2023-02-02T20:31:46.214Z,2.08
2023-02-02T20:34:12.563Z,2.44
2023-02-02T20:36:38.861Z,2.29
2023-02-02T20:39:05.149Z,2.51
2023-02-02T20:41:31.481Z,2.32
2023-02-02T20:43:57.773Z,2.71
2023-02-02T20:46:24.057Z,2.40
2023-02-02T20:48:50.379Z,2.12
2023-02-02T20:51:16.670Z,2.38
2023-02-02T20:53:43.138Z,2.58
2023-02-02T20:56:09.446Z,2.73
2023-02-02T20:58:35.739Z,2.42
2023-02-02T21:01:02.056Z,2.60
2023-02-02T21:03:28.387Z,2.42
2023-02-02T21:05:54.676Z,2.55
2023-02-02T21:08:20.972Z,2.49
2023-02-02T21:10:47.270Z,2.24
2023-02-02T21:13:13.547Z,2.38
2023-02-02T21:15:39.861Z,3.20
2023-02-02T21:18:06.162Z,3.29
2023-02-02T21:20:32.443Z,3.13
2023-02-02T21:22:58.723Z,2.76
2023-02-02T21:25:25.049Z,2.20
2023-02-02T21:27:51.352Z,2.11
2023-02-02T21:30:17.630Z,1.86
2023-02-02T21:32:43.934Z,1.73
2023-02-02T21:35:10.237Z,1.86
2023-02-02T21:37:36.516Z,1.90
2023-02-02T21:40:02.815Z,2.03
2023-02-02T21:42:29.118Z,2.11
2023-02-02T21:44:55.396Z,2.05
2023-02-02T21:47:21.745Z,2.11
2023-02-02T21:49:48.215Z,2.15
2023-02-02T21:52:14.488Z,1.95
2023-02-02T21:54:40.794Z,1.99
2023-02-02T21:57:07.072Z,1.93
2023-02-02T21:59:33.373Z,2.24
2023-02-02T22:01:59.681Z,2.20
2023-02-02T22:04:25.975Z,1.88
2023-02-02T22:06:52.273Z,1.88
2023-02-02T22:09:18.594Z,2.25
2023-02-02T22:11:44.906Z,2.49
2023-02-02T22:14:11.181Z,2.27
2023-02-02T22:16:37.488Z,2.24
2023-02-02T22:19:03.769Z,2.07
2023-02-02T22:21:30.050Z,2.11
2023-02-02T22:23:56.358Z,2.04
2023-02-02T22:26:22.645Z,1.94
2023-02-02T22:28:48.941Z,2.08
2023-02-02T22:31:15.304Z,2.28
2023-02-02T22:33:41.697Z,1.99
2023-02-02T22:36:07.981Z,2.29
2023-02-02T22:38:34.287Z,2.40
2023-02-02T22:41:00.590Z,2.34
2023-02-02T22:43:26.882Z,2.09
2023-02-02T22:45:53.267Z,2.23
2023-02-02T22:48:19.621Z,2.89
2023-02-02T22:50:45.903Z,2.57
2023-02-02T22:53:12.254Z,2.44
2023-02-02T22:55:38.539Z,2.45
2023-02-02T22:58:04.829Z,2.53
2023-02-02T23:00:31.132Z,2.85
2023-02-02T23:02:57.477Z,2.64
2023-02-02T23:05:23.815Z,2.78
2023-02-02T23:07:50.114Z,2.89
2023-02-02T23:10:16.388Z,2.88
2023-02-02T23:12:42.665Z,2.90
2023-02-02T23:15:08.976Z,3.06
2023-02-02T23:17:35.259Z,3.23
2023-02-02T23:20:01.552Z,3.07
2023-02-02T23:22:27.859Z,2.86
2023-02-02T23:24:54.133Z,3.03
2023-02-02T23:27:20.409Z,3.20
2023-02-02T23:29:46.711Z,3.04
2023-02-02T23:32:12.996Z,2.95
2023-02-02T23:34:39.299Z,3.43
2023-02-02T23:37:05.612Z,3.25
2023-02-02T23:39:31.893Z,2.60
2023-02-02T23:41:58.160Z,2.56
2023-02-02T23:44:24.463Z,2.85
2023-02-02T23:46:50.812Z,2.89
2023-02-02T23:49:17.248Z,3.40
2023-02-02T23:51:43.542Z,3.13
2023-02-02T23:54:09.819Z,2.93
2023-02-02T23:56:36.092Z,2.72
2023-02-02T23:59:02.430Z,2.58
